Time;durP1;ratioP1;P1;durP2;ratioP2;P2;SDS_P1;SDS_P2;PMS_P1;PMS_P2;Temp;Humidity;BMP_temperature;BMP_pressure;BME280_temperature;BME280_humidity;BME280_pressure;Samples;Min_cycle;Max_cycle;Signal;HPM_P1;HPM_P2
2022/01/13 00:00:14;;;;;;;16.73;5.00;;;;;;;-14.77;79.65;100098.16;5072058;28;20041;-68
2022/01/13 00:02:40;;;;;;;18.50;4.55;;;;;;;-14.71;79.80;100106.00;5054028;28;20045;-68
2022/01/13 00:05:06;;;;;;;15.73;5.05;;;;;;;-14.82;79.45;100086.88;5054026;28;20036;-70
2022/01/13 00:07:33;;;;;;;14.45;4.70;;;;;;;-14.79;80.08;100089.50;5072238;28;20044;-69
2022/01/13 00:09:59;;;;;;;16.35;4.88;;;;;;;-14.85;79.59;100087.69;5070352;28;20052;-68
2022/01/13 00:12:31;;;;;;;15.40;4.75;;;;;;;-14.95;80.23;100086.75;5087418;28;20085;-70
2022/01/13 00:17:45;;;;;;;9.73;3.75;;;;;;;-14.79;80.64;100077.41;5037151;28;20111;-68
2022/01/13 00:20:30;;;;;;;11.27;3.15;;;;;;;-14.69;80.29;100075.78;5071659;28;20087;-68
2022/01/13 00:25:40;;;;;;;10.93;3.47;;;;;;;-14.69;80.30;100070.59;5053615;28;19988;-70
2022/01/13 00:28:15;;;;;;;16.23;4.60;;;;;;;-14.97;80.90;100036.56;5052951;28;20056;-69
2022/01/13 00:30:41;;;;;;;12.90;4.35;;;;;;;-14.77;81.45;100085.19;5071710;28;20288;-69
2022/01/13 00:33:09;;;;;;;10.05;3.88;;;;;;;-14.69;81.66;100073.19;5086267;28;20048;-68
2022/01/13 00:35:35;;;;;;;16.38;3.90;;;;;;;-14.62;81.71;100074.97;5070468;28;20048;-68
2022/01/13 00:38:01;;;;;;;11.02;3.55;;;;;;;-14.62;81.03;100065.47;5053103;28;20147;-71
2022/01/13 00:40:27;;;;;;;14.30;3.42;;;;;;;-14.57;81.30;100056.84;5087153;28;20055;-69
2022/01/13 00:42:53;;;;;;;14.07;4.45;;;;;;;-14.52;81.04;100056.00;5072697;28;20484;-69
2022/01/13 00:45:19;;;;;;;9.57;3.42;;;;;;;-14.58;81.74;100035.22;5072229;28;20041;-69
2022/01/13 00:47:44;;;;;;;16.65;4.75;;;;;;;-14.56;81.65;100032.63;5072602;28;20044;-69
2022/01/13 00:50:11;;;;;;;14.13;3.88;;;;;;;-14.47;80.97;100030.97;5091140;28;20078;-68
2022/01/13 00:52:36;;;;;;;16.67;3.88;;;;;;;-14.61;80.00;100014.44;5072935;28;20048;-67
2022/01/13 00:55:07;;;;;;;17.20;5.30;;;;;;;-14.47;80.48;100012.78;5070059;28;20166;-68
2022/01/13 00:57:33;;;;;;;15.18;4.35;;;;;;;-14.42;79.96;100020.59;5069553;28;20075;-69
2022/01/13 00:59:59;;;;;;;18.17;5.07;;;;;;;-14.35;80.08;100018.06;5088033;28;20055;-68
2022/01/13 01:02:26;;;;;;;14.27;4.05;;;;;;;-14.33;79.57;100010.31;5071056;28;20202;-66
2022/01/13 01:04:52;;;;;;;18.73;4.55;;;;;;;-14.39;79.46;100003.31;5071800;28;20404;-68
2022/01/13 01:07:18;;;;;;;11.75;3.28;;;;;;;-14.34;79.17;99998.16;5086691;28;20067;-69
2022/01/13 01:09:50;;;;;;;14.43;4.00;;;;;;;-14.21;79.19;99993.94;5054651;28;20419;-68
2022/01/13 01:12:18;;;;;;;16.25;4.25;;;;;;;-14.27;79.59;99986.09;5073077;28;20411;-69
2022/01/13 01:14:48;;;;;;;9.00;2.85;;;;;;;-14.34;79.03;99975.66;5088179;28;20060;-66
2022/01/13 01:17:16;;;;;;;22.77;4.60;;;;;;;-14.75;78.25;99992.69;5071258;28;20476;-68
2022/01/13 01:19:45;;;;;;;19.23;6.45;;;;;;;-15.07;78.77;99977.69;5086019;28;20041;-69
2022/01/13 01:25:03;;;;;;;16.80;4.95;;;;;;;-15.14;79.76;99971.56;5071078;28;20054;-68
2022/01/13 01:27:40;;;;;;;12.75;4.82;;;;;;;-15.19;79.88;99960.31;5036002;28;20463;-67
2022/01/13 01:30:12;;;;;;;9.90;3.95;;;;;;;-15.02;79.91;99969.97;5085118;28;20496;-68
2022/01/13 01:32:40;;;;;;;12.18;4.53;;;;;;;-14.97;80.42;99969.16;5054158;28;20044;-66
2022/01/13 01:35:13;;;;;;;13.13;4.57;;;;;;;-14.97;80.77;99963.97;5071005;28;20062;-68
2022/01/13 01:37:40;;;;;;;10.88;2.72;;;;;;;-14.99;79.95;99970.84;5085307;28;20099;-68
2022/01/13 01:40:07;;;;;;;12.73;4.63;;;;;;;-14.87;79.53;99978.75;5086192;28;20064;-68
2022/01/13 01:42:33;;;;;;;23.58;4.55;;;;;;;-14.97;79.51;99971.75;5070999;28;20102;-67
2022/01/13 01:45:00;;;;;;;16.30;4.30;;;;;;;-15.08;79.35;99966.44;5071499;28;20447;-68
2022/01/13 01:47:28;;;;;;;13.07;3.75;;;;;;;-15.12;79.21;99954.31;5072530;28;20102;-68
2022/01/13 01:49:57;;;;;;;15.95;5.03;;;;;;;-15.17;78.97;99950.81;5090643;28;20136;-68
2022/01/13 01:52:24;;;;;;;14.27;4.15;;;;;;;-15.19;78.92;99936.09;5074070;28;20125;-69
2022/01/13 01:54:50;;;;;;;17.13;4.68;;;;;;;-15.26;78.95;99949.84;5091312;28;20063;-68
2022/01/13 01:57:19;;;;;;;17.20;5.85;;;;;;;-15.37;79.72;99942.84;5075775;28;20135;-69
2022/01/13 01:59:45;;;;;;;18.15;6.00;;;;;;;-15.44;79.71;99941.03;5073950;28;20048;-69
2022/01/13 02:02:12;;;;;;;22.52;6.25;;;;;;;-15.73;80.37;99937.28;5073596;28;20090;-69
2022/01/13 02:04:39;;;;;;;17.80;6.55;;;;;;;-15.78;80.72;99938.97;5090353;28;20456;-69
2022/01/13 02:07:07;;;;;;;13.50;4.13;;;;;;;-15.85;80.86;99928.53;5073806;28;20132;-68
2022/01/13 02:09:36;;;;;;;22.90;5.90;;;;;;;-16.10;81.77;99895.44;5074647;28;20498;-68
2022/01/13 02:12:10;;;;;;;22.88;7.90;;;;;;;-16.14;81.91;99924.72;5073432;28;20048;-68
2022/01/13 02:14:48;;;;;;;17.50;5.35;;;;;;;-16.16;82.46;99937.66;5074853;28;20074;-69
2022/01/13 02:17:22;;;;;;;16.23;4.88;;;;;;;-16.07;82.88;99932.56;5074895;28;20131;-68
2022/01/13 02:19:50;;;;;;;14.18;4.63;;;;;;;-16.01;82.78;99939.56;5089705;28;20075;-68
2022/01/13 02:22:16;;;;;;;13.55;4.60;;;;;;;-16.09;82.73;99933.41;5057672;28;20462;-68
2022/01/13 02:24:41;;;;;;;18.60;5.18;;;;;;;-16.14;82.96;99922.13;5056309;28;20048;-68
2022/01/13 02:27:08;;;;;;;17.77;6.00;;;;;;;-16.47;83.43;99894.94;5040038;28;20085;-68
2022/01/13 02:29:34;;;;;;;16.88;5.40;;;;;;;-16.22;83.54;99937.56;5074805;28;20049;-68
2022/01/13 02:32:01;;;;;;;23.98;7.03;;;;;;;-16.34;84.15;99927.03;5075311;28;20052;-68
2022/01/13 02:34:27;;;;;;;25.23;7.22;;;;;;;-16.47;84.22;99902.72;5056523;28;20048;-69
2022/01/13 02:36:54;;;;;;;16.15;4.55;;;;;;;-16.49;84.27;99886.28;5075153;28;20044;-69
2022/01/13 02:39:21;;;;;;;27.35;7.68;;;;;;;-16.21;84.20;99928.06;5039837;28;20047;-69
2022/01/13 02:41:47;;;;;;;15.57;4.32;;;;;;;-16.02;83.84;99935.22;5056474;28;20040;-68
2022/01/13 02:44:17;;;;;;;13.38;3.80;;;;;;;-16.02;83.71;99924.84;5073141;28;20056;-68
2022/01/13 02:47:05;;;;;;;11.02;4.35;;;;;;;-15.92;84.26;99937.06;5056657;28;20044;-69
2022/01/13 02:49:29;;;;;;;19.13;5.53;;;;;;;-16.07;84.13;99898.06;5070132;28;20054;-69
2022/01/13 02:51:54;;;;;;;13.95;4.00;;;;;;;-16.03;84.32;99901.56;5090796;28;20547;-71
2022/01/13 02:54:22;;;;;;;16.73;4.30;;;;;;;-16.00;84.95;99936.13;5075642;28;20128;-69
2022/01/13 02:56:47;;;;;;;14.55;4.13;;;;;;;-16.10;85.46;99942.88;5073194;28;20048;-68
2022/01/13 02:59:14;;;;;;;17.80;6.13;;;;;;;-16.04;86.19;99942.09;5090719;28;20090;-69
2022/01/13 03:01:40;;;;;;;23.33;7.22;;;;;;;-16.38;86.09;99900.28;5090697;28;20083;-69
2022/01/13 03:04:08;;;;;;;22.10;6.10;;;;;;;-16.53;85.55;99874.16;5056158;28;20060;-68
2022/01/13 03:06:38;;;;;;;10.57;3.58;;;;;;;-16.15;85.38;99949.72;5039367;28;20376;-67
2022/01/13 03:09:08;;;;;;;21.05;6.10;;;;;;;-16.20;85.06;99945.31;5072643;28;20049;-68
2022/01/13 03:11:36;;;;;;;27.48;8.10;;;;;;;-16.42;85.16;99934.69;5055463;28;20083;-69
2022/01/13 03:14:10;;;;;;;25.40;8.27;;;;;;;-16.61;84.83;99918.03;5055747;28;20083;-69
2022/01/13 03:16:40;;;;;;;22.45;7.75;;;;;;;-16.96;84.68;99873.59;5072083;28;20095;-68
2022/01/13 03:19:06;;;;;;;17.33;4.88;;;;;;;-16.77;84.51;99894.56;5073530;28;20040;-68
2022/01/13 03:21:32;;;;;;;22.70;7.53;;;;;;;-16.73;84.46;99896.34;5073737;28;20059;-69
2022/01/13 03:23:58;;;;;;;16.58;5.72;;;;;;;-16.82;84.65;99890.16;5090557;28;20538;-69
2022/01/13 03:26:24;;;;;;;13.57;5.18;;;;;;;-16.75;84.25;99890.28;5055808;28;20044;-68
2022/01/13 03:28:51;;;;;;;22.30;7.32;;;;;;;-16.78;84.18;99893.66;5073366;28;20051;-68
2022/01/13 03:31:19;;;;;;;22.02;7.18;;;;;;;-16.88;84.38;99877.16;5038701;28;20074;-69
2022/01/13 03:33:45;;;;;;;24.67;8.30;;;;;;;-17.05;84.80;99876.03;5070801;28;20396;-69
2022/01/13 03:36:11;;;;;;;22.98;8.02;;;;;;;-17.32;85.65;99833.44;5088065;28;20132;-69
2022/01/13 03:38:37;;;;;;;22.02;8.65;;;;;;;-17.13;86.58;99854.38;5054570;28;20568;-68
2022/01/13 03:41:03;;;;;;;27.60;8.00;;;;;;;-17.11;86.97;99852.69;5072712;28;20597;-68
2022/01/13 03:43:30;;;;;;;28.60;8.98;;;;;;;-17.14;86.98;99853.50;5071108;28;20380;-68
2022/01/13 03:45:56;;;;;;;24.33;8.35;;;;;;;-17.49;86.65;99803.88;5054477;28;20220;-68
2022/01/13 03:48:22;;;;;;;27.20;10.15;;;;;;;-17.29;87.23;99833.47;5054313;28;20587;-68
2022/01/13 03:50:47;;;;;;;26.52;8.88;;;;;;;-17.22;87.58;99823.22;5037347;28;20098;-68
2022/01/13 03:53:28;;;;;;;20.45;7.85;;;;;;;-17.08;86.45;99826.88;5071043;28;20450;-68
2022/01/13 03:56:32;;;;;;;25.85;7.85;;;;;;;-17.09;85.04;99818.28;5071985;28;20056;-69
2022/01/13 03:59:19;;;;;;;26.63;8.55;;;;;;;-17.22;84.08;99792.22;5087505;28;20448;-68
2022/01/13 04:01:51;;;;;;;21.63;6.10;;;;;;;-17.20;83.12;99785.38;5054007;28;20082;-69
2022/01/13 04:04:17;;;;;;;21.95;7.30;;;;;;;-17.46;83.23;99751.41;5072556;28;20087;-69
2022/01/13 04:06:44;;;;;;;18.35;7.00;;;;;;;-17.29;83.79;99774.06;5071606;28;20140;-68
2022/01/13 04:09:22;;;;;;;27.70;9.20;;;;;;;-17.31;84.20;99773.16;5089647;28;20059;-68
2022/01/13 04:11:47;;;;;;;25.55;8.32;;;;;;;-17.65;84.72;99724.44;5076188;28;20135;-70
2022/01/13 04:14:14;;;;;;;26.80;9.38;;;;;;;-17.45;84.19;99800.50;5039734;28;20768;-68
2022/01/13 04:16:39;;;;;;;29.58;8.23;;;;;;;-17.43;85.32;99809.16;5056234;28;20076;-68
2022/01/13 04:19:07;;;;;;;18.13;5.43;;;;;;;-17.48;85.03;99768.59;5053547;28;20091;-68
2022/01/13 04:21:35;;;;;;;20.35;6.72;;;;;;;-17.23;84.37;99777.56;5053294;28;20449;-68
2022/01/13 04:24:03;;;;;;;15.50;4.03;;;;;;;-17.47;83.30;99740.22;5070200;28;20044;-68
2022/01/13 04:26:30;;;;;;;17.35;5.70;;;;;;;-17.21;82.52;99774.19;5037118;28;20040;-70
2022/01/13 04:29:28;;;;;;;24.08;8.05;;;;;;;-17.69;80.97;99732.97;5087335;28;20048;-70
2022/01/13 04:31:50;;;;;;;20.67;7.57;;;;;;;-17.63;81.78;99759.75;5071963;28;20507;-70
2022/01/13 04:34:17;;;;;;;24.95;7.82;;;;;;;-17.74;81.31;99765.59;5053172;28;20040;-69
2022/01/13 04:36:43;;;;;;;23.65;8.20;;;;;;;-17.94;81.47;99742.94;5071254;28;20507;-70
2022/01/13 04:39:11;;;;;;;22.25;7.90;;;;;;;-18.00;82.38;99745.41;5069622;28;20048;-68
2022/01/13 04:41:39;;;;;;;23.75;8.30;;;;;;;-18.29;82.17;99703.63;5071436;28;20051;-69
2022/01/13 04:44:11;;;;;;;25.45;9.15;;;;;;;-18.11;82.46;99759.84;5053020;28;20044;-69
2022/01/13 04:46:37;;;;;;;20.67;7.65;;;;;;;-18.16;83.42;99757.19;5086396;28;20048;-69
2022/01/13 04:49:05;;;;;;;20.58;7.63;;;;;;;-18.17;84.29;99754.56;5070615;28;20107;-68
2022/01/13 04:51:31;;;;;;;25.23;8.73;;;;;;;-18.35;83.87;99740.50;5071358;28;20086;-69
2022/01/13 04:53:57;;;;;;;23.00;8.18;;;;;;;-18.41;84.77;99755.84;5052998;28;20357;-68
2022/01/13 04:56:43;;;;;;;24.50;8.02;;;;;;;-18.51;84.99;99743.63;5036980;28;20045;-69
2022/01/13 04:59:11;;;;;;;22.83;9.18;;;;;;;-18.41;84.94;99745.53;5050764;28;20043;-69
2022/01/13 05:01:37;;;;;;;24.90;9.00;;;;;;;-18.51;85.08;99743.63;5064706;28;20047;-68
2022/01/13 05:04:04;;;;;;;22.40;7.38;;;;;;;-18.69;84.58;99702.03;5072145;28;20554;-68
2022/01/13 05:06:30;;;;;;;23.60;7.97;;;;;;;-18.78;84.44;99698.50;5072456;28;20084;-68
2022/01/13 05:08:56;;;;;;;24.33;8.05;;;;;;;-18.62;85.10;99714.22;5091160;28;20040;-69
2022/01/13 05:11:22;;;;;;;25.45;8.27;;;;;;;-19.02;84.69;99641.34;5052778;28;20165;-68
2022/01/13 05:13:48;;;;;;;26.55;8.35;;;;;;;-18.68;84.46;99696.03;5060871;28;20518;-68
2022/01/13 05:16:22;;;;;;;29.15;8.50;;;;;;;-18.73;83.96;99697.72;5102800;28;20553;-68
2022/01/13 05:18:57;;;;;;;23.73;8.63;;;;;;;-18.79;84.37;99693.28;5072414;28;20116;-68
2022/01/13 05:21:38;;;;;;;25.83;8.73;;;;;;;-18.77;84.48;99697.63;5076959;28;20094;-68
2022/01/13 05:24:04;;;;;;;25.05;8.63;;;;;;;-18.81;84.05;99682.97;5039665;28;20048;-68
2022/01/13 05:26:30;;;;;;;33.63;9.65;;;;;;;-19.19;84.20;99632.41;5055228;28;20055;-68
2022/01/13 05:28:56;;;;;;;24.98;7.07;;;;;;;-18.79;84.64;99694.19;5072260;28;20048;-69
2022/01/13 05:31:22;;;;;;;28.13;9.65;;;;;;;-19.01;84.53;99666.25;5055615;28;20039;-67
2022/01/13 05:33:48;;;;;;;28.13;8.10;;;;;;;-18.99;85.26;99650.00;5072821;28;20528;-67
2022/01/13 05:36:14;;;;;;;27.25;10.30;;;;;;;-18.91;85.69;99659.56;5090868;28;20521;-67
2022/01/13 05:38:42;;;;;;;22.77;8.98;;;;;;;-19.31;86.20;99626.16;5072428;28;20040;-67
2022/01/13 05:41:08;;;;;;;29.83;9.25;;;;;;;-19.39;86.79;99617.44;5090530;28;20044;-67
2022/01/13 05:43:33;;;;;;;23.63;8.45;;;;;;;-19.15;86.98;99639.38;5046584;28;20051;-68
2022/01/13 05:45:59;;;;;;;30.25;9.75;;;;;;;-19.25;87.75;99618.59;5066356;28;20143;-73
2022/01/13 05:48:25;;;;;;;25.63;9.43;;;;;;;-19.39;87.07;99621.72;5068448;28;20427;-74
2022/01/13 05:50:51;;;;;;;26.85;10.20;;;;;;;-19.74;86.82;99558.44;5071720;28;20037;-73
2022/01/13 05:53:17;;;;;;;33.25;10.20;;;;;;;-19.47;86.79;99621.56;5064645;28;20121;-71
2022/01/13 05:55:43;;;;;;;35.83;12.80;;;;;;;-19.51;89.25;99610.34;5057731;28;20495;-69
2022/01/13 05:58:09;;;;;;;31.13;11.45;;;;;;;-19.54;90.60;99615.41;5080115;28;20093;-73
2022/01/13 06:00:35;;;;;;;35.03;12.70;;;;;;;-19.63;90.30;99604.09;5041254;28;20058;-77
2022/01/13 06:03:02;;;;;;;35.72;11.93;;;;;;;-19.63;90.43;99615.28;5069103;28;20067;-75
2022/01/13 06:05:28;;;;;;;32.03;11.45;;;;;;;-19.76;91.21;99603.84;5059878;28;20551;-71
2022/01/13 06:07:54;;;;;;;23.77;7.60;;;;;;;-19.57;92.11;99604.19;5001116;28;20051;-74
2022/01/13 06:10:21;;;;;;;27.73;10.55;;;;;;;-19.45;91.67;99611.28;5051061;28;20048;-74
2022/01/13 06:12:48;;;;;;;37.53;11.15;;;;;;;-19.65;91.74;99610.91;5050977;28;20047;-77
2022/01/13 06:15:18;;;;;;;35.88;11.40;;;;;;;-19.78;92.36;99605.53;5043920;28;20092;-74
2022/01/13 06:17:44;;;;;;;27.33;8.00;;;;;;;-19.94;92.83;99572.56;5049665;28;20040;-74
2022/01/13 06:20:11;;;;;;;30.58;10.85;;;;;;;-19.80;92.99;99620.03;5037537;28;20047;-75
2022/01/13 06:22:39;;;;;;;28.23;9.85;;;;;;;-19.79;93.16;99619.19;5066945;28;20036;-74
2022/01/13 06:25:06;;;;;;;28.48;11.15;;;;;;;-19.84;93.17;99600.25;5050856;28;20052;-74
2022/01/13 06:27:32;;;;;;;29.15;10.52;;;;;;;-19.89;93.10;99559.81;5076897;28;20187;-74
2022/01/13 06:29:58;;;;;;;26.40;9.63;;;;;;;-19.52;92.69;99556.25;5044112;28;20441;-73
2022/01/13 06:32:24;;;;;;;23.70;7.47;;;;;;;-19.52;90.84;99525.34;5046251;28;20036;-75
2022/01/13 06:34:51;;;;;;;30.08;9.35;;;;;;;-18.99;88.92;99600.19;5055165;28;20118;-74
2022/01/13 06:37:17;;;;;;;30.33;10.02;;;;;;;-18.64;86.87;99592.19;5067540;28;20146;-74
2022/01/13 06:39:44;;;;;;;30.58;11.98;;;;;;;-18.53;85.30;99559.72;5055674;28;20130;-74
2022/01/13 06:42:10;;;;;;;29.00;10.90;;;;;;;-17.67;80.67;99529.94;5063200;28;20509;-74
2022/01/13 06:44:36;;;;;;;25.80;8.50;;;;;;;-17.08;77.71;99532.31;5045422;28;20507;-76
2022/01/13 06:47:02;;;;;;;23.95;8.80;;;;;;;-16.46;73.91;99570.75;5023726;28;20045;-71
2022/01/13 06:49:28;;;;;;;22.35;7.43;;;;;;;-16.07;71.10;99559.00;5081420;28;20344;-75
2022/01/13 06:51:54;;;;;;;26.75;8.95;;;;;;;-16.26;69.68;99528.69;5053091;28;20473;-74
2022/01/13 06:54:20;;;;;;;24.17;8.77;;;;;;;-16.07;68.82;99528.78;5048093;28;20396;-73
2022/01/13 06:56:45;;;;;;;22.15;7.82;;;;;;;-16.42;68.75;99523.38;5043157;28;20032;-75
2022/01/13 06:59:13;;;;;;;25.45;9.15;;;;;;;-16.91;68.79;99444.59;5079742;28;20100;-74
2022/01/13 07:01:40;;;;;;;27.05;11.88;;;;;;;-17.81;72.74;99512.59;5062952;28;20036;-74
2022/01/13 07:04:09;;;;;;;22.48;8.20;;;;;;;-16.52;71.03;99524.19;5022865;28;20055;-75
2022/01/13 07:06:36;;;;;;;25.02;9.10;;;;;;;-16.08;67.60;99506.38;5050508;28;20082;-75
2022/01/13 07:09:05;;;;;;;23.05;8.30;;;;;;;-15.97;65.81;99523.69;5059805;28;20047;-75
2022/01/13 07:11:31;;;;;;;21.23;6.88;;;;;;;-15.17;63.17;99519.63;5067408;28;20044;-75
2022/01/13 07:13:57;;;;;;;23.52;7.63;;;;;;;-14.69;61.25;99533.56;5047901;28;20079;-75
2022/01/13 07:16:22;;;;;;;21.65;8.23;;;;;;;-14.50;61.03;99514.53;5073198;28;20101;-74
2022/01/13 07:18:48;;;;;;;27.15;9.30;;;;;;;-14.01;59.72;99498.84;5053485;28;20064;-75
2022/01/13 07:21:16;;;;;;;28.50;11.88;;;;;;;-15.10;61.24;99433.22;5047579;28;20055;-75
2022/01/13 07:23:44;;;;;;;25.20;10.20;;;;;;;-14.07;59.14;99491.09;5037138;28;20052;-76
2022/01/13 07:26:09;;;;;;;29.23;11.93;;;;;;;-15.06;60.65;99494.63;5021779;28;20043;-74
2022/01/13 07:28:35;;;;;;;22.23;8.20;;;;;;;-15.66;62.87;99491.88;5070685;28;20044;-74
2022/01/13 07:31:01;;;;;;;24.80;10.18;;;;;;;-15.19;63.41;99485.94;5034833;28;20047;-73
2022/01/13 07:33:28;;;;;;;24.85;10.98;;;;;;;-15.46;62.64;99465.16;5060488;28;20464;-67
2022/01/13 07:35:54;;;;;;;25.88;10.32;;;;;;;-15.84;65.17;99420.16;5025581;28;20044;-74
2022/01/13 07:38:20;;;;;;;22.63;8.85;;;;;;;-14.97;62.71;99419.44;5056261;28;20151;-74
2022/01/13 07:40:47;;;;;;;24.30;8.93;;;;;;;-14.59;60.24;99392.59;5022914;28;20152;-74
2022/01/13 07:43:13;;;;;;;20.42;8.82;;;;;;;-14.14;58.81;99382.94;5057315;28;20106;-74
2022/01/13 07:45:39;;;;;;;22.48;9.35;;;;;;;-13.92;58.26;99433.91;5067595;28;20134;-74
2022/01/13 07:48:05;;;;;;;23.25;8.65;;;;;;;-13.19;56.51;99450.84;5085947;28;20077;-74
2022/01/13 07:50:31;;;;;;;20.35;7.95;;;;;;;-12.43;53.86;99389.50;5064462;28;20055;-75
2022/01/13 07:52:57;;;;;;;18.98;6.20;;;;;;;-10.83;51.82;99431.69;5094501;28;20044;-74
2022/01/13 07:55:23;;;;;;;21.17;6.97;;;;;;;-11.27;52.72;99428.00;5042381;28;20518;-74
2022/01/13 07:57:49;;;;;;;20.38;8.77;;;;;;;-12.84;54.90;99391.59;5053252;28;20056;-72
2022/01/13 08:00:15;;;;;;;22.17;7.68;;;;;;;-12.42;54.60;99405.97;5078742;28;20044;-73
2022/01/13 08:02:41;;;;;;;23.05;8.98;;;;;;;-13.14;56.64;99417.84;5064421;28;20048;-73
2022/01/13 08:05:08;;;;;;;21.60;8.65;;;;;;;-12.25;54.28;99370.19;5056009;28;20055;-75
2022/01/13 08:07:34;;;;;;;20.65;8.98;;;;;;;-12.91;54.73;99399.47;5049111;28;20557;-73
2022/01/13 08:10:00;;;;;;;21.90;7.80;;;;;;;-13.75;58.06;99386.19;5077887;28;20049;-74
2022/01/13 08:12:26;;;;;;;25.83;9.85;;;;;;;-14.95;61.64;99396.97;5066444;28;20734;-74
2022/01/13 08:14:52;;;;;;;21.63;8.70;;;;;;;-14.99;63.23;99364.09;5044159;28;20119;-74
2022/01/13 08:20:03;;;;;;;27.27;11.30;;;;;;;-15.21;63.71;99364.97;5077182;28;20601;-74
2022/01/13 08:22:29;;;;;;;25.35;10.93;;;;;;;-15.38;65.18;99333.91;5053992;28;20127;-74
2022/01/13 08:24:54;;;;;;;26.17;10.40;;;;;;;-15.01;64.01;99297.59;5064465;28;20125;-74
2022/01/13 08:27:20;;;;;;;24.92;10.95;;;;;;;-14.91;63.44;99322.63;5028179;28;20500;-73
2022/01/13 08:29:46;;;;;;;26.27;9.77;;;;;;;-13.94;61.73;99323.94;5037625;28;20040;-74
2022/01/13 08:32:12;;;;;;;22.02;8.70;;;;;;;-12.41;57.44;99312.22;5053305;28;20122;-74
2022/01/13 08:34:38;;;;;;;20.35;8.10;;;;;;;-11.96;55.35;99290.81;5050499;28;20353;-73
2022/01/13 08:37:03;;;;;;;26.40;11.77;;;;;;;-11.87;53.32;99255.97;5036054;28;20485;-75
2022/01/13 08:39:30;;;;;;;24.88;9.75;;;;;;;-11.17;52.45;99250.44;5051715;28;20068;-73
2022/01/13 08:41:57;;;;;;;20.65;8.73;;;;;;;-11.05;51.18;99202.38;5064595;28;20150;-74
2022/01/13 08:44:23;;;;;;;19.83;5.97;;;;;;;-11.02;52.27;99241.47;5070133;28;20131;-74
2022/01/13 08:46:49;;;;;;;21.65;8.38;;;;;;;-12.56;54.96;99234.31;5081463;28;20150;-75
2022/01/13 08:49:15;;;;;;;22.45;9.43;;;;;;;-13.90;58.11;99193.19;5044706;28;20082;-74
2022/01/13 08:51:40;;;;;;;24.30;9.57;;;;;;;-14.67;61.36;99202.38;5058942;28;20040;-74
2022/01/13 08:54:06;;;;;;;22.67;10.23;;;;;;;-14.94;63.11;99195.59;5059015;28;20048;-76
2022/01/13 08:56:32;;;;;;;23.83;9.10;;;;;;;-15.08;63.94;99185.25;5045065;28;20106;-67
2022/01/13 08:58:58;;;;;;;22.80;10.38;;;;;;;-15.14;64.67;99185.25;5042422;28;20076;-78
2022/01/13 09:01:24;;;;;;;21.08;9.10;;;;;;;-14.78;63.81;99154.88;5019787;28;20491;-73
2022/01/13 09:03:50;;;;;;;20.33;7.88;;;;;;;-14.59;63.85;99182.44;5086941;28;20052;-74
2022/01/13 09:06:16;;;;;;;18.23;7.40;;;;;;;-14.19;62.66;99148.41;5078471;28;20484;-69
2022/01/13 09:08:41;;;;;;;22.70;9.30;;;;;;;-14.25;62.98;99169.25;5055064;28;20040;-67
2022/01/13 09:11:07;;;;;;;20.65;7.65;;;;;;;-13.84;62.85;99171.53;5061559;28;20131;-68
2022/01/13 09:13:36;;;;;;;19.45;7.85;;;;;;;-14.15;62.90;99147.50;5041212;28;20430;-72
2022/01/13 09:16:13;;;;;;;21.98;8.27;;;;;;;-14.23;63.69;99136.34;5037864;28;20074;-69
2022/01/13 09:21:37;;;;;;;27.42;9.70;;;;;;;-14.95;66.13;99111.75;5025866;28;20063;-72
2022/01/13 09:24:10;;;;;;;22.20;9.00;;;;;;;-15.22;66.82;99088.53;5046837;28;20056;-75
2022/01/13 09:26:36;;;;;;;23.27;9.10;;;;;;;-15.65;68.14;99034.34;5072157;28;20123;-70
2022/01/13 09:29:04;;;;;;;26.10;9.90;;;;;;;-15.51;68.84;99061.03;5096225;28;20052;-71
2022/01/13 09:31:31;;;;;;;26.15;9.63;;;;;;;-15.33;68.94;99105.00;5033784;28;20572;-72
2022/01/13 09:33:57;;;;;;;23.08;8.43;;;;;;;-15.17;68.77;99115.28;5051229;28;20411;-75
2022/01/13 09:36:23;;;;;;;25.13;9.88;;;;;;;-15.26;68.97;99115.34;5067572;28;20053;-74
2022/01/13 09:38:49;;;;;;;22.42;6.90;;;;;;;-15.37;69.79;99103.28;5057058;28;20040;-73
2022/01/13 09:41:15;;;;;;;23.35;7.80;;;;;;;-15.29;70.02;99099.81;5067679;28;20049;-71
2022/01/13 09:43:44;;;;;;;21.75;8.93;;;;;;;-15.53;70.21;99052.41;5063478;28;20389;-73
2022/01/13 09:46:10;;;;;;;21.42;8.43;;;;;;;-15.50;70.68;99093.84;5081137;28;20040;-69
2022/01/13 09:48:41;;;;;;;19.02;7.97;;;;;;;-15.50;71.36;99070.53;5099537;28;20056;-76
2022/01/13 09:51:08;;;;;;;17.38;6.60;;;;;;;-15.48;71.26;99057.56;5036026;28;20036;-71
2022/01/13 09:53:35;;;;;;;21.17;8.10;;;;;;;-15.49;71.79;99054.13;5082456;28;20101;-73
2022/01/13 09:56:01;;;;;;;19.27;6.50;;;;;;;-15.33;72.68;99071.31;5077849;28;20050;-72
2022/01/13 09:58:27;;;;;;;20.77;7.07;;;;;;;-15.35;71.90;99054.91;5067919;28;20509;-73
2022/01/13 10:00:52;;;;;;;18.70;7.28;;;;;;;-15.24;71.75;99056.59;5055097;28;20180;-71
2022/01/13 10:03:23;;;;;;;23.90;7.97;;;;;;;-15.32;72.00;99034.19;5040953;28;20124;-72
2022/01/13 10:05:52;;;;;;;18.27;7.45;;;;;;;-15.19;71.82;99018.56;5072366;28;20495;-73
2022/01/13 10:08:23;;;;;;;18.02;6.63;;;;;;;-15.11;71.96;99011.59;5075326;28;20056;-71
2022/01/13 10:10:49;;;;;;;21.38;7.25;;;;;;;-15.15;72.03;99004.72;5083286;28;20048;-72
2022/01/13 10:13:29;;;;;;;18.38;6.93;;;;;;;-15.12;71.78;98986.56;5040900;28;20706;-72
2022/01/13 10:18:45;;;;;;;18.77;6.57;;;;;;;-15.04;72.23;98987.34;5048988;28;20556;-72
2022/01/13 10:21:16;;;;;;;19.55;6.53;;;;;;;-15.11;72.37;98960.59;5083997;28;20404;-71
2022/01/13 10:24:12;;;;;;;22.55;7.22;;;;;;;-14.97;72.44;98963.09;5051619;28;20059;-70
2022/01/13 10:26:39;;;;;;;18.60;6.97;;;;;;;-15.20;73.00;98897.63;5072060;28;20106;-72
2022/01/13 10:29:07;;;;;;;19.00;6.28;;;;;;;-15.09;73.09;98880.25;5049136;28;20048;-73
2022/01/13 10:31:50;;;;;;;19.60;7.18;;;;;;;-15.03;72.29;98885.38;5088953;28;20165;-73
2022/01/13 10:34:32;;;;;;;17.45;5.60;;;;;;;-14.78;72.36;98877.38;5077947;28;20200;-73
2022/01/13 10:36:59;;;;;;;16.20;5.85;;;;;;;-14.78;72.27;98864.41;5087711;28;20036;-71
2022/01/13 10:39:52;;;;;;;14.50;6.15;;;;;;;-14.63;72.31;98856.47;5064910;28;20049;-71
2022/01/13 10:45:14;;;;;;;16.63;6.13;;;;;;;-14.52;72.61;98839.06;5058218;28;20052;-70
2022/01/13 10:47:40;;;;;;;18.20;6.25;;;;;;;-14.52;72.39;98836.47;5051322;28;20098;-71
2022/01/13 10:50:10;;;;;;;14.93;6.38;;;;;;;-14.47;72.57;98829.47;5068442;28;20040;-72
2022/01/13 10:52:36;;;;;;;16.67;6.30;;;;;;;-14.42;72.75;98808.66;5070581;28;20201;-71
2022/01/13 10:55:10;;;;;;;13.30;4.68;;;;;;;-14.33;72.77;98805.97;5052301;28;20046;-71
2022/01/13 10:57:37;;;;;;;15.07;4.90;;;;;;;-14.45;73.26;98773.22;5065241;28;20162;-71
2022/01/13 11:00:05;;;;;;;14.07;5.00;;;;;;;-14.41;72.38;98751.53;5055725;28;20047;-71
2022/01/13 11:02:31;;;;;;;13.98;4.68;;;;;;;-14.14;72.50;98785.81;5076362;28;20044;-72
2022/01/13 11:05:01;;;;;;;16.00;5.10;;;;;;;-14.37;72.21;98727.28;5055319;28;20177;-72
2022/01/13 11:07:27;;;;;;;16.48;5.80;;;;;;;-14.30;73.34;98717.66;5059454;28;20051;-72
2022/01/13 11:09:57;;;;;;;15.70;4.75;;;;;;;-14.15;72.43;98735.63;5037835;28;20070;-72
2022/01/13 11:12:44;;;;;;;15.45;5.78;;;;;;;-14.17;73.22;98713.16;5070980;28;20515;-72
2022/01/13 11:15:16;;;;;;;16.40;5.75;;;;;;;-14.23;73.60;98703.72;5068537;28;20047;-71
2022/01/13 11:17:45;;;;;;;15.00;4.32;;;;;;;-14.20;73.74;98687.25;5059400;28;20055;-72
2022/01/13 11:20:17;;;;;;;15.23;5.22;;;;;;;-14.10;73.79;98699.22;5027919;28;20075;-70
2022/01/13 11:22:44;;;;;;;16.20;5.65;;;;;;;-14.11;74.17;98677.59;5074101;28;20048;-72
2022/01/13 11:25:15;;;;;;;15.38;5.05;;;;;;;-14.08;74.40;98673.22;5075616;28;20044;-69
2022/01/13 11:27:41;;;;;;;14.73;4.80;;;;;;;-14.04;74.66;98657.56;5062460;28;20040;-70
2022/01/13 11:30:10;;;;;;;14.50;5.22;;;;;;;-14.23;75.40;98614.59;5061865;28;20048;-72
2022/01/13 11:32:39;;;;;;;15.82;5.72;;;;;;;-13.93;75.82;98629.69;5077206;28;20456;-71
2022/01/13 11:35:06;;;;;;;14.00;4.95;;;;;;;-13.88;76.26;98638.25;5038030;28;20045;-72
2022/01/13 11:37:32;;;;;;;15.85;5.57;;;;;;;-13.87;76.96;98624.38;5037824;28;20036;-72
2022/01/13 11:39:58;;;;;;;14.02;5.07;;;;;;;-13.91;78.11;98596.75;5041417;28;20128;-73